Terminal Aerodrome Forecast
Issued by NWS

Home | Current Version | Previous Version | Text Only | Print | Product List | Glossary On
Versions: 1 2 3 4 5 6 7 8 9 10 11 12 13 14 15 16 17 18 19 20 21 22 23 24 25 26 27 28 29 30 31 32 33
000
FTUS45 KABQ 270700 AAB
TAFSAF
TAF AMD
KSAF 270750Z 2708/2806 14018KT 2SM -SN OVC015
      TEMPO 2708/2709 1/4SM +SN FZFG VV005
     FM270900 14018KT 5SM -SN BR OVC020
     FM271100 15015KT 5SM BR BKN025 OVC040
     FM271500 15010KT P6SM VCSH OVC025
     FM271900 16011KT P6SM VCSH OVC035
     FM272300 14013KT 2SM -SN OVC018=

USA.gov is the U.S. government's official web portal to all federal, state and local government web resources and services.